WXForecasting.com
Harvey, MI - Weather Station Data
 
Daily Summary for March 06, 2015 Units:  English    Metric   Both
« Previous Day
Next Day »
Daily Weekly Monthly Yearly Custom
  Current: High: Low: Average:
Temperature: 18.4 °F 18.4 °F 3.4 °F 7.8 °F
Dew Point: 4.0 °F 4.0 °F -9.0 °F -4.3 °F
Humidity: 54% 66% 47% 58%
Wind Speed: 3.0mph 11.0mph 0.0mph 3mph
Wind Gust: 12.0mph 18.0mph - -
WindSouth - - South
Pressure: 29.99 in 30.31 in 29.99 in -
Precipitation: 0.00 in      
Historical Graphs
 
 
Tabular Data for March 06, 2015
Time Temp Dew Point Pressure Wind Wind Speed Wind Gust RH Rain Rate/Hour
00:02 8.3 °F -6.0 °F 30.31 in Calm   7.0 mph 52% 0.00 in
00:18 8.9 °F -7.0 °F 30.30 in Calm   8.0 mph 49% 0.00 in
00:33 9.4 °F -7.0 °F 30.30 in SW 4.0 mph 8.0 mph 47% 0.00 in
00:48 9.1 °F -7.0 °F 30.29 in SE 1.0 mph 5.0 mph 47% 0.00 in
01:03 7.6 °F -7.0 °F 30.29 in Calm   2.0 mph 51% 0.00 in
01:18 6.5 °F -8.0 °F 30.29 in SE 2.0 mph 4.0 mph 52% 0.00 in
01:33 6.4 °F -8.0 °F 30.28 in South 1.0 mph 4.0 mph 51% 0.00 in
01:48 6.5 °F -8.0 °F 30.28 in SSE 1.0 mph 6.0 mph 51% 0.00 in
02:03 6.7 °F -8.0 °F 30.27 in SE 3.0 mph 10.0 mph 50% 0.00 in
02:18 6.1 °F -9.0 °F 30.27 in Calm   3.0 mph 51% 0.00 in
02:33 5.5 °F -8.0 °F 30.27 in Calm   4.0 mph 53% 0.00 in
02:48 4.1 °F -8.0 °F 30.27 in ENE 2.0 mph 2.0 mph 57% 0.00 in
03:03 4.8 °F -8.0 °F 30.26 in SSW 1.0 mph 5.0 mph 56% 0.00 in
03:18 4.4 °F -9.0 °F 30.24 in ESE 4.0 mph 4.0 mph 55% 0.00 in
03:33 4.4 °F -8.0 °F 30.24 in South 1.0 mph 8.0 mph 56% 0.00 in
03:49 3.9 °F -8.0 °F 30.24 in SE 3.0 mph 7.0 mph 57% 0.00 in
04:04 3.5 °F -8.0 °F 30.23 in SSW 1.0 mph 5.0 mph 58% 0.00 in
04:19 3.4 °F -8.0 °F 30.22 in WSW 3.0 mph 5.0 mph 59% 0.00 in
04:34 3.6 °F -8.0 °F 30.21 in South 1.0 mph 6.0 mph 60% 0.00 in
04:49 3.7 °F -7.0 °F 30.20 in SSE 1.0 mph 9.0 mph 61% 0.00 in
05:03 4.0 °F -7.0 °F 30.20 in South 9.0 mph 10.0 mph 61% 0.00 in
05:19 4.2 °F -7.0 °F 30.19 in SSW 3.0 mph 9.0 mph 61% 0.00 in
05:34 4.5 °F -6.0 °F 30.18 in SSW 1.0 mph 9.0 mph 62% 0.00 in
05:49 4.7 °F -6.0 °F 30.18 in Calm   10.0 mph 62% 0.00 in
06:04 4.8 °F -5.0 °F 30.17 in SSE 3.0 mph 11.0 mph 63% 0.00 in
06:19 5.0 °F -5.0 °F 30.17 in South 7.0 mph 10.0 mph 63% 0.00 in
06:34 5.5 °F -4.0 °F 30.16 in South 4.0 mph 10.0 mph 64% 0.00 in
06:49 6.2 °F -3.0 °F 30.15 in SW 3.0 mph 10.0 mph 65% 0.00 in
07:05 6.5 °F -3.0 °F 30.14 in SE 3.0 mph 10.0 mph 65% 0.00 in
07:20 6.9 °F -2.0 °F 30.13 in SSW 4.0 mph 9.0 mph 66% 0.00 in
07:35 7.2 °F -2.0 °F 30.12 in SW 2.0 mph 11.0 mph 65% 0.00 in
07:50 7.6 °F -2.0 °F 30.10 in South 3.0 mph 10.0 mph 66% 0.00 in
08:06 8.1 °F -1.0 °F 30.09 in SSE 11.0 mph 17.0 mph 66% 0.00 in
08:20 8.7 °F -1.0 °F 30.08 in SSW 4.0 mph 15.0 mph 66% 0.00 in
08:35 9.6 °F 0.0 °F 30.07 in South 8.0 mph 13.0 mph 65% 0.00 in
08:50 10.7 °F 1.0 °F 30.08 in SE 3.0 mph 14.0 mph 64% 0.00 in
09:05 12.3 °F 1.0 °F 30.07 in SW 4.0 mph 16.0 mph 62% 0.00 in
09:20 13.6 °F 2.0 °F 30.06 in South 11.0 mph 15.0 mph 60% 0.00 in
09:35 13.9 °F 2.0 °F 30.06 in South 2.0 mph 16.0 mph 59% 0.00 in
09:50 14.7 °F 2.0 °F 30.03 in SE 8.0 mph 18.0 mph 58% 0.00 in
10:05 15.6 °F 3.0 °F 30.02 in SSW 2.0 mph 18.0 mph 58% 0.00 in
10:20 16.2 °F 3.0 °F 30.02 in West 2.0 mph 18.0 mph 56% 0.00 in
10:36 16.9 °F 4.0 °F 30.00 in SSW 3.0 mph 16.0 mph 56% 0.00 in
10:51 18.4 °F 4.0 °F 29.99 in South 3.0 mph 12.0 mph 54% 0.00 in
Compliments of Weather Underground

6 Visitors online right now
Max visitors today: 17 at 07:17 am EST
This month: 23 at 03-02-2015 04:11 pm EST
This year: 30 at 01-03-2015 05:32 am EST
All time: 104 at 01-04-2012 03:34 am EST
See Who is Online